sensor_id;sensor_type;location;lat;lon;timestamp;P1;durP1;ratioP1;P2;durP2;ratioP2
77105;SDS011;66057;54.718;18.426;2023-01-31T00:01:56;8.18;;;2.25;;
77105;SDS011;66057;54.718;18.426;2023-01-31T00:04:22;6.30;;;1.45;;
77105;SDS011;66057;54.718;18.426;2023-01-31T00:06:48;6.97;;;1.88;;
77105;SDS011;66057;54.718;18.426;2023-01-31T00:09:16;7.43;;;1.88;;
77105;SDS011;66057;54.718;18.426;2023-01-31T00:11:42;6.30;;;1.45;;
77105;SDS011;66057;54.718;18.426;2023-01-31T00:14:07;7.95;;;1.48;;
77105;SDS011;66057;54.718;18.426;2023-01-31T00:16:35;10.95;;;1.52;;
77105;SDS011;66057;54.718;18.426;2023-01-31T00:19:01;6.22;;;1.77;;
77105;SDS011;66057;54.718;18.426;2023-01-31T00:21:27;5.28;;;1.40;;
77105;SDS011;66057;54.718;18.426;2023-01-31T00:23:54;8.05;;;1.85;;
77105;SDS011;66057;54.718;18.426;2023-01-31T00:26:25;3.20;;;0.88;;
77105;SDS011;66057;54.718;18.426;2023-01-31T00:28:52;9.77;;;1.95;;
77105;SDS011;66057;54.718;18.426;2023-01-31T00:31:19;1.30;;;0.65;;
77105;SDS011;66057;54.718;18.426;2023-01-31T00:33:46;6.65;;;1.90;;
77105;SDS011;66057;54.718;18.426;2023-01-31T00:36:13;5.88;;;1.40;;
77105;SDS011;66057;54.718;18.426;2023-01-31T00:38:40;6.13;;;1.85;;
77105;SDS011;66057;54.718;18.426;2023-01-31T00:41:07;4.30;;;1.15;;
77105;SDS011;66057;54.718;18.426;2023-01-31T00:43:33;2.97;;;0.80;;
77105;SDS011;66057;54.718;18.426;2023-01-31T00:45:59;6.32;;;1.15;;
77105;SDS011;66057;54.718;18.426;2023-01-31T00:48:26;6.55;;;1.40;;
77105;SDS011;66057;54.718;18.426;2023-01-31T00:50:52;4.18;;;1.10;;
77105;SDS011;66057;54.718;18.426;2023-01-31T00:53:19;7.03;;;1.58;;
77105;SDS011;66057;54.718;18.426;2023-01-31T00:55:51;3.97;;;1.45;;
77105;SDS011;66057;54.718;18.426;2023-01-31T00:58:18;7.47;;;2.15;;
77105;SDS011;66057;54.718;18.426;2023-01-31T01:00:44;4.32;;;1.17;;
77105;SDS011;66057;54.718;18.426;2023-01-31T01:03:10;3.88;;;1.23;;
77105;SDS011;66057;54.718;18.426;2023-01-31T01:05:36;2.78;;;0.90;;
77105;SDS011;66057;54.718;18.426;2023-01-31T01:08:02;11.07;;;1.40;;
77105;SDS011;66057;54.718;18.426;2023-01-31T01:10:28;6.00;;;0.77;;
77105;SDS011;66057;54.718;18.426;2023-01-31T01:12:53;10.82;;;1.35;;
77105;SDS011;66057;54.718;18.426;2023-01-31T01:15:19;3.20;;;0.82;;
77105;SDS011;66057;54.718;18.426;2023-01-31T01:17:45;4.72;;;0.65;;
77105;SDS011;66057;54.718;18.426;2023-01-31T01:20:11;3.72;;;1.10;;
77105;SDS011;66057;54.718;18.426;2023-01-31T01:22:36;2.55;;;0.65;;
77105;SDS011;66057;54.718;18.426;2023-01-31T01:25:03;3.45;;;0.43;;
77105;SDS011;66057;54.718;18.426;2023-01-31T01:27:29;4.07;;;0.75;;
77105;SDS011;66057;54.718;18.426;2023-01-31T01:29:55;3.97;;;0.82;;
77105;SDS011;66057;54.718;18.426;2023-01-31T01:32:22;3.28;;;0.77;;
77105;SDS011;66057;54.718;18.426;2023-01-31T01:34:48;5.85;;;0.80;;
77105;SDS011;66057;54.718;18.426;2023-01-31T01:37:13;4.57;;;0.52;;
77105;SDS011;66057;54.718;18.426;2023-01-31T01:39:45;1.83;;;0.52;;
77105;SDS011;66057;54.718;18.426;2023-01-31T01:42:13;2.38;;;0.38;;
77105;SDS011;66057;54.718;18.426;2023-01-31T01:44:49;2.95;;;0.70;;
77105;SDS011;66057;54.718;18.426;2023-01-31T01:50:12;1.27;;;0.32;;
77105;SDS011;66057;54.718;18.426;2023-01-31T01:52:53;1.63;;;0.70;;
77105;SDS011;66057;54.718;18.426;2023-01-31T01:55:30;4.05;;;0.47;;
77105;SDS011;66057;54.718;18.426;2023-01-31T01:58:50;2.03;;;0.85;;
77105;SDS011;66057;54.718;18.426;2023-01-31T02:01:02;4.53;;;0.65;;
77105;SDS011;66057;54.718;18.426;2023-01-31T02:03:29;2.00;;;0.40;;
77105;SDS011;66057;54.718;18.426;2023-01-31T02:05:56;2.78;;;0.77;;
77105;SDS011;66057;54.718;18.426;2023-01-31T02:08:26;4.07;;;0.98;;
77105;SDS011;66057;54.718;18.426;2023-01-31T02:11:17;2.42;;;0.47;;
77105;SDS011;66057;54.718;18.426;2023-01-31T02:13:45;2.20;;;0.47;;
77105;SDS011;66057;54.718;18.426;2023-01-31T02:16:13;4.07;;;0.75;;
77105;SDS011;66057;54.718;18.426;2023-01-31T02:18:39;4.50;;;0.77;;
77105;SDS011;66057;54.718;18.426;2023-01-31T02:21:19;5.07;;;1.15;;
77105;SDS011;66057;54.718;18.426;2023-01-31T02:30:31;2.83;;;0.90;;
77105;SDS011;66057;54.718;18.426;2023-01-31T02:35:51;3.65;;;0.95;;
77105;SDS011;66057;54.718;18.426;2023-01-31T02:47:09;1.52;;;0.25;;
77105;SDS011;66057;54.718;18.426;2023-01-31T02:49:48;4.78;;;0.75;;
77105;SDS011;66057;54.718;18.426;2023-01-31T02:52:25;2.05;;;0.47;;
77105;SDS011;66057;54.718;18.426;2023-01-31T02:54:59;2.92;;;0.35;;
77105;SDS011;66057;54.718;18.426;2023-01-31T02:57:45;3.38;;;0.80;;
77105;SDS011;66057;54.718;18.426;2023-01-31T03:00:14;3.10;;;0.80;;
77105;SDS011;66057;54.718;18.426;2023-01-31T03:02:41;4.78;;;0.90;;
77105;SDS011;66057;54.718;18.426;2023-01-31T03:05:10;3.80;;;0.65;;
77105;SDS011;66057;54.718;18.426;2023-01-31T03:07:38;1.60;;;0.32;;
77105;SDS011;66057;54.718;18.426;2023-01-31T03:10:12;1.48;;;0.60;;
77105;SDS011;66057;54.718;18.426;2023-01-31T03:12:49;3.55;;;0.50;;
77105;SDS011;66057;54.718;18.426;2023-01-31T03:15:57;1.13;;;0.60;;
77105;SDS011;66057;54.718;18.426;2023-01-31T03:19:26;2.08;;;0.35;;
77105;SDS011;66057;54.718;18.426;2023-01-31T03:21:48;2.00;;;1.00;;
77105;SDS011;66057;54.718;18.426;2023-01-31T03:24:21;2.85;;;0.80;;
77105;SDS011;66057;54.718;18.426;2023-01-31T03:26:51;3.10;;;0.95;;
77105;SDS011;66057;54.718;18.426;2023-01-31T03:29:19;2.33;;;0.75;;
77105;SDS011;66057;54.718;18.426;2023-01-31T03:31:48;6.15;;;0.82;;
77105;SDS011;66057;54.718;18.426;2023-01-31T03:34:19;2.65;;;0.75;;
77105;SDS011;66057;54.718;18.426;2023-01-31T03:39:16;1.70;;;0.77;;
77105;SDS011;66057;54.718;18.426;2023-01-31T03:41:57;2.75;;;0.68;;
77105;SDS011;66057;54.718;18.426;2023-01-31T03:47:23;2.88;;;0.63;;
77105;SDS011;66057;54.718;18.426;2023-01-31T03:49:53;5.18;;;1.45;;
77105;SDS011;66057;54.718;18.426;2023-01-31T03:52:24;7.45;;;1.00;;
77105;SDS011;66057;54.718;18.426;2023-01-31T03:54:58;3.03;;;0.57;;
77105;SDS011;66057;54.718;18.426;2023-01-31T03:57:29;3.53;;;0.82;;
77105;SDS011;66057;54.718;18.426;2023-01-31T03:59:59;3.35;;;0.38;;
77105;SDS011;66057;54.718;18.426;2023-01-31T04:02:31;2.35;;;0.82;;
77105;SDS011;66057;54.718;18.426;2023-01-31T04:05:02;1.55;;;0.45;;
77105;SDS011;66057;54.718;18.426;2023-01-31T04:07:29;2.05;;;0.40;;
77105;SDS011;66057;54.718;18.426;2023-01-31T04:09:55;2.75;;;0.52;;
77105;SDS011;66057;54.718;18.426;2023-01-31T04:12:20;1.55;;;0.40;;
77105;SDS011;66057;54.718;18.426;2023-01-31T04:14:46;3.22;;;0.65;;
77105;SDS011;66057;54.718;18.426;2023-01-31T04:17:12;4.57;;;0.85;;
77105;SDS011;66057;54.718;18.426;2023-01-31T04:19:37;6.60;;;1.20;;
77105;SDS011;66057;54.718;18.426;2023-01-31T04:22:03;6.05;;;1.52;;
77105;SDS011;66057;54.718;18.426;2023-01-31T04:24:29;4.65;;;1.23;;
77105;SDS011;66057;54.718;18.426;2023-01-31T04:26:55;2.70;;;1.13;;
77105;SDS011;66057;54.718;18.426;2023-01-31T04:29:20;5.35;;;0.63;;
77105;SDS011;66057;54.718;18.426;2023-01-31T04:31:46;1.95;;;0.52;;
77105;SDS011;66057;54.718;18.426;2023-01-31T04:34:11;6.35;;;1.13;;
77105;SDS011;66057;54.718;18.426;2023-01-31T04:36:37;4.72;;;1.38;;
77105;SDS011;66057;54.718;18.426;2023-01-31T04:39:03;3.10;;;1.25;;
77105;SDS011;66057;54.718;18.426;2023-01-31T04:41:29;2.72;;;0.82;;
77105;SDS011;66057;54.718;18.426;2023-01-31T04:43:54;3.13;;;0.93;;
77105;SDS011;66057;54.718;18.426;2023-01-31T04:46:20;2.60;;;1.00;;
77105;SDS011;66057;54.718;18.426;2023-01-31T04:48:46;4.15;;;0.88;;
77105;SDS011;66057;54.718;18.426;2023-01-31T04:51:12;3.08;;;1.10;;
77105;SDS011;66057;54.718;18.426;2023-01-31T04:53:37;5.22;;;1.10;;
77105;SDS011;66057;54.718;18.426;2023-01-31T04:56:03;3.33;;;0.98;;
77105;SDS011;66057;54.718;18.426;2023-01-31T04:58:30;2.15;;;0.60;;
77105;SDS011;66057;54.718;18.426;2023-01-31T05:00:56;3.05;;;1.38;;
77105;SDS011;66057;54.718;18.426;2023-01-31T05:03:21;1.60;;;1.05;;
77105;SDS011;66057;54.718;18.426;2023-01-31T05:05:48;5.03;;;1.17;;
77105;SDS011;66057;54.718;18.426;2023-01-31T05:08:14;4.00;;;0.80;;
77105;SDS011;66057;54.718;18.426;2023-01-31T05:10:40;4.18;;;2.10;;
77105;SDS011;66057;54.718;18.426;2023-01-31T05:13:07;5.40;;;3.13;;
77105;SDS011;66057;54.718;18.426;2023-01-31T05:15:33;3.78;;;1.38;;
77105;SDS011;66057;54.718;18.426;2023-01-31T05:17:59;4.22;;;1.38;;
77105;SDS011;66057;54.718;18.426;2023-01-31T05:20:29;5.22;;;1.23;;
77105;SDS011;66057;54.718;18.426;2023-01-31T05:22:56;7.22;;;1.98;;
77105;SDS011;66057;54.718;18.426;2023-01-31T05:25:23;6.13;;;1.27;;
77105;SDS011;66057;54.718;18.426;2023-01-31T05:27:49;4.30;;;1.50;;
77105;SDS011;66057;54.718;18.426;2023-01-31T05:30:15;4.13;;;1.55;;
77105;SDS011;66057;54.718;18.426;2023-01-31T05:32:41;7.60;;;2.22;;
77105;SDS011;66057;54.718;18.426;2023-01-31T05:35:11;2.72;;;0.60;;
77105;SDS011;66057;54.718;18.426;2023-01-31T05:37:37;5.68;;;2.28;;
77105;SDS011;66057;54.718;18.426;2023-01-31T05:40:10;5.00;;;1.48;;
77105;SDS011;66057;54.718;18.426;2023-01-31T05:42:37;4.80;;;1.42;;
77105;SDS011;66057;54.718;18.426;2023-01-31T05:45:04;9.20;;;2.92;;
77105;SDS011;66057;54.718;18.426;2023-01-31T05:47:31;2.60;;;1.30;;
77105;SDS011;66057;54.718;18.426;2023-01-31T05:49:56;9.65;;;1.60;;
77105;SDS011;66057;54.718;18.426;2023-01-31T05:52:22;1.92;;;0.75;;
77105;SDS011;66057;54.718;18.426;2023-01-31T05:54:48;5.30;;;0.82;;
77105;SDS011;66057;54.718;18.426;2023-01-31T05:57:13;2.90;;;0.68;;
77105;SDS011;66057;54.718;18.426;2023-01-31T05:59:40;2.97;;;1.08;;
77105;SDS011;66057;54.718;18.426;2023-01-31T06:02:06;5.03;;;0.95;;
77105;SDS011;66057;54.718;18.426;2023-01-31T06:04:36;3.22;;;0.90;;
77105;SDS011;66057;54.718;18.426;2023-01-31T06:07:02;4.38;;;0.90;;
77105;SDS011;66057;54.718;18.426;2023-01-31T06:09:28;1.50;;;0.90;;
77105;SDS011;66057;54.718;18.426;2023-01-31T06:11:54;5.13;;;1.90;;
77105;SDS011;66057;54.718;18.426;2023-01-31T06:14:20;8.02;;;2.20;;
77105;SDS011;66057;54.718;18.426;2023-01-31T06:16:46;7.05;;;1.08;;
77105;SDS011;66057;54.718;18.426;2023-01-31T06:19:12;10.95;;;2.83;;
77105;SDS011;66057;54.718;18.426;2023-01-31T06:21:37;3.90;;;1.42;;
77105;SDS011;66057;54.718;18.426;2023-01-31T06:24:03;7.53;;;1.85;;
77105;SDS011;66057;54.718;18.426;2023-01-31T06:26:29;5.30;;;2.25;;
77105;SDS011;66057;54.718;18.426;2023-01-31T06:28:55;4.68;;;1.52;;
77105;SDS011;66057;54.718;18.426;2023-01-31T06:31:20;6.63;;;1.77;;
77105;SDS011;66057;54.718;18.426;2023-01-31T06:33:46;5.05;;;1.90;;
77105;SDS011;66057;54.718;18.426;2023-01-31T06:36:11;4.95;;;1.30;;
77105;SDS011;66057;54.718;18.426;2023-01-31T06:38:37;5.72;;;2.25;;
77105;SDS011;66057;54.718;18.426;2023-01-31T06:41:03;8.18;;;2.47;;
77105;SDS011;66057;54.718;18.426;2023-01-31T06:43:29;5.97;;;2.60;;
77105;SDS011;66057;54.718;18.426;2023-01-31T06:45:54;4.93;;;1.13;;
77105;SDS011;66057;54.718;18.426;2023-01-31T06:48:21;4.07;;;1.65;;
77105;SDS011;66057;54.718;18.426;2023-01-31T06:50:46;5.97;;;1.83;;
77105;SDS011;66057;54.718;18.426;2023-01-31T06:53:12;8.70;;;2.70;;
77105;SDS011;66057;54.718;18.426;2023-01-31T06:55:38;8.00;;;2.65;;
77105;SDS011;66057;54.718;18.426;2023-01-31T06:58:04;8.57;;;1.83;;
77105;SDS011;66057;54.718;18.426;2023-01-31T07:00:29;4.47;;;2.05;;
77105;SDS011;66057;54.718;18.426;2023-01-31T07:02:55;6.45;;;2.00;;
77105;SDS011;66057;54.718;18.426;2023-01-31T07:05:21;8.98;;;2.50;;
77105;SDS011;66057;54.718;18.426;2023-01-31T07:07:48;7.10;;;2.67;;
77105;SDS011;66057;54.718;18.426;2023-01-31T07:10:14;7.15;;;2.20;;
77105;SDS011;66057;54.718;18.426;2023-01-31T07:15:07;8.07;;;2.33;;
77105;SDS011;66057;54.718;18.426;2023-01-31T07:17:34;6.18;;;1.48;;
77105;SDS011;66057;54.718;18.426;2023-01-31T07:20:00;4.25;;;1.48;;
77105;SDS011;66057;54.718;18.426;2023-01-31T07:22:26;12.55;;;1.70;;
77105;SDS011;66057;54.718;18.426;2023-01-31T07:24:51;8.60;;;1.80;;
77105;SDS011;66057;54.718;18.426;2023-01-31T07:27:18;5.82;;;2.17;;
77105;SDS011;66057;54.718;18.426;2023-01-31T07:29:43;9.60;;;2.42;;
77105;SDS011;66057;54.718;18.426;2023-01-31T07:32:09;9.73;;;1.63;;
77105;SDS011;66057;54.718;18.426;2023-01-31T07:34:35;3.83;;;1.25;;
77105;SDS011;66057;54.718;18.426;2023-01-31T07:37:01;5.20;;;0.90;;
77105;SDS011;66057;54.718;18.426;2023-01-31T07:39:27;7.13;;;1.75;;
77105;SDS011;66057;54.718;18.426;2023-01-31T07:41:54;13.27;;;2.38;;
77105;SDS011;66057;54.718;18.426;2023-01-31T07:44:20;4.68;;;1.58;;
77105;SDS011;66057;54.718;18.426;2023-01-31T07:46:45;8.32;;;2.55;;
77105;SDS011;66057;54.718;18.426;2023-01-31T07:49:11;8.30;;;2.17;;
77105;SDS011;66057;54.718;18.426;2023-01-31T07:51:37;9.82;;;1.83;;
77105;SDS011;66057;54.718;18.426;2023-01-31T07:54:03;8.85;;;2.83;;
77105;SDS011;66057;54.718;18.426;2023-01-31T07:56:33;7.97;;;1.50;;
77105;SDS011;66057;54.718;18.426;2023-01-31T07:58:59;9.93;;;1.98;;
77105;SDS011;66057;54.718;18.426;2023-01-31T08:01:26;7.32;;;2.28;;
77105;SDS011;66057;54.718;18.426;2023-01-31T08:04:12;7.88;;;1.48;;
77105;SDS011;66057;54.718;18.426;2023-01-31T08:06:39;6.25;;;2.03;;
77105;SDS011;66057;54.718;18.426;2023-01-31T08:09:06;13.73;;;2.88;;
77105;SDS011;66057;54.718;18.426;2023-01-31T08:11:32;8.82;;;2.35;;
77105;SDS011;66057;54.718;18.426;2023-01-31T08:13:58;9.35;;;2.47;;
77105;SDS011;66057;54.718;18.426;2023-01-31T08:16:24;10.15;;;2.05;;
77105;SDS011;66057;54.718;18.426;2023-01-31T08:18:50;8.70;;;2.70;;
77105;SDS011;66057;54.718;18.426;2023-01-31T08:21:17;9.10;;;2.85;;
77105;SDS011;66057;54.718;18.426;2023-01-31T08:23:43;12.20;;;2.08;;
77105;SDS011;66057;54.718;18.426;2023-01-31T08:26:13;9.90;;;3.55;;
77105;SDS011;66057;54.718;18.426;2023-01-31T08:28:44;13.43;;;3.10;;
77105;SDS011;66057;54.718;18.426;2023-01-31T08:31:12;6.80;;;1.75;;
77105;SDS011;66057;54.718;18.426;2023-01-31T08:33:40;7.20;;;2.15;;
77105;SDS011;66057;54.718;18.426;2023-01-31T08:36:07;10.50;;;2.80;;
77105;SDS011;66057;54.718;18.426;2023-01-31T08:38:55;11.20;;;2.35;;
77105;SDS011;66057;54.718;18.426;2023-01-31T08:41:22;6.30;;;2.05;;
77105;SDS011;66057;54.718;18.426;2023-01-31T08:43:49;9.88;;;1.92;;
77105;SDS011;66057;54.718;18.426;2023-01-31T08:46:16;13.38;;;1.90;;
77105;SDS011;66057;54.718;18.426;2023-01-31T08:48:41;12.60;;;2.45;;
77105;SDS011;66057;54.718;18.426;2023-01-31T08:51:09;13.98;;;3.78;;
77105;SDS011;66057;54.718;18.426;2023-01-31T08:53:40;12.40;;;2.35;;
77105;SDS011;66057;54.718;18.426;2023-01-31T08:56:11;10.88;;;2.53;;
77105;SDS011;66057;54.718;18.426;2023-01-31T08:58:38;2.95;;;1.63;;
77105;SDS011;66057;54.718;18.426;2023-01-31T09:01:07;5.10;;;1.60;;
77105;SDS011;66057;54.718;18.426;2023-01-31T09:03:35;8.90;;;2.10;;
77105;SDS011;66057;54.718;18.426;2023-01-31T09:06:01;16.17;;;3.35;;
77105;SDS011;66057;54.718;18.426;2023-01-31T09:08:29;11.93;;;2.92;;
77105;SDS011;66057;54.718;18.426;2023-01-31T09:10:56;12.10;;;3.97;;
77105;SDS011;66057;54.718;18.426;2023-01-31T09:13:24;12.98;;;3.53;;
77105;SDS011;66057;54.718;18.426;2023-01-31T09:15:58;14.90;;;3.17;;
77105;SDS011;66057;54.718;18.426;2023-01-31T09:18:24;8.75;;;2.15;;
77105;SDS011;66057;54.718;18.426;2023-01-31T09:20:50;10.40;;;2.28;;
77105;SDS011;66057;54.718;18.426;2023-01-31T09:23:16;9.40;;;3.30;;
77105;SDS011;66057;54.718;18.426;2023-01-31T09:25:44;4.15;;;1.40;;
77105;SDS011;66057;54.718;18.426;2023-01-31T09:28:16;9.88;;;2.47;;
77105;SDS011;66057;54.718;18.426;2023-01-31T09:30:42;9.63;;;1.77;;
77105;SDS011;66057;54.718;18.426;2023-01-31T09:33:07;6.45;;;1.98;;
77105;SDS011;66057;54.718;18.426;2023-01-31T09:35:34;7.53;;;1.50;;
77105;SDS011;66057;54.718;18.426;2023-01-31T09:37:59;11.57;;;2.72;;
77105;SDS011;66057;54.718;18.426;2023-01-31T09:40:25;5.90;;;1.58;;
77105;SDS011;66057;54.718;18.426;2023-01-31T09:42:56;11.20;;;1.98;;
77105;SDS011;66057;54.718;18.426;2023-01-31T09:47:57;6.13;;;2.20;;
77105;SDS011;66057;54.718;18.426;2023-01-31T09:50:35;9.52;;;2.58;;
77105;SDS011;66057;54.718;18.426;2023-01-31T09:53:09;7.63;;;2.33;;
77105;SDS011;66057;54.718;18.426;2023-01-31T09:55:46;8.20;;;1.90;;
77105;SDS011;66057;54.718;18.426;2023-01-31T10:01:17;6.03;;;1.98;;
77105;SDS011;66057;54.718;18.426;2023-01-31T10:12:04;7.05;;;1.85;;
77105;SDS011;66057;54.718;18.426;2023-01-31T10:19:58;6.57;;;1.25;;
77105;SDS011;66057;54.718;18.426;2023-01-31T10:22:32;6.63;;;1.67;;
77105;SDS011;66057;54.718;18.426;2023-01-31T10:28:03;22.70;;;3.55;;
77105;SDS011;66057;54.718;18.426;2023-01-31T10:30:40;9.95;;;2.75;;
77105;SDS011;66057;54.718;18.426;2023-01-31T10:33:18;10.00;;;2.45;;
77105;SDS011;66057;54.718;18.426;2023-01-31T10:36:08;3.95;;;1.63;;
77105;SDS011;66057;54.718;18.426;2023-01-31T10:39:06;7.97;;;2.50;;
77105;SDS011;66057;54.718;18.426;2023-01-31T10:47:30;5.50;;;2.35;;
77105;SDS011;66057;54.718;18.426;2023-01-31T10:49:58;9.63;;;1.95;;
77105;SDS011;66057;54.718;18.426;2023-01-31T10:58:30;7.57;;;1.77;;
77105;SDS011;66057;54.718;18.426;2023-01-31T11:00:57;10.30;;;2.75;;
77105;SDS011;66057;54.718;18.426;2023-01-31T11:03:23;10.75;;;2.58;;
77105;SDS011;66057;54.718;18.426;2023-01-31T11:05:50;7.00;;;2.97;;
77105;SDS011;66057;54.718;18.426;2023-01-31T11:08:21;18.00;;;4.25;;
77105;SDS011;66057;54.718;18.426;2023-01-31T11:10:53;9.27;;;2.35;;
77105;SDS011;66057;54.718;18.426;2023-01-31T11:13:20;9.77;;;2.35;;
77105;SDS011;66057;54.718;18.426;2023-01-31T11:15:47;6.43;;;2.40;;
77105;SDS011;66057;54.718;18.426;2023-01-31T11:18:25;7.90;;;2.72;;
77105;SDS011;66057;54.718;18.426;2023-01-31T11:20:54;19.55;;;5.05;;
77105;SDS011;66057;54.718;18.426;2023-01-31T11:23:21;15.10;;;4.03;;
77105;SDS011;66057;54.718;18.426;2023-01-31T11:25:50;8.95;;;3.13;;
77105;SDS011;66057;54.718;18.426;2023-01-31T11:28:19;9.85;;;2.28;;
77105;SDS011;66057;54.718;18.426;2023-01-31T11:30:49;23.05;;;3.70;;
77105;SDS011;66057;54.718;18.426;2023-01-31T11:33:37;9.57;;;3.83;;
77105;SDS011;66057;54.718;18.426;2023-01-31T11:36:06;7.18;;;2.92;;
77105;SDS011;66057;54.718;18.426;2023-01-31T11:38:33;9.68;;;3.88;;
77105;SDS011;66057;54.718;18.426;2023-01-31T11:40:59;12.02;;;5.13;;
77105;SDS011;66057;54.718;18.426;2023-01-31T11:43:26;8.82;;;2.35;;
77105;SDS011;66057;54.718;18.426;2023-01-31T11:45:56;5.55;;;2.13;;
77105;SDS011;66057;54.718;18.426;2023-01-31T11:48:24;6.18;;;2.03;;
77105;SDS011;66057;54.718;18.426;2023-01-31T11:50:54;9.18;;;2.53;;
77105;SDS011;66057;54.718;18.426;2023-01-31T11:55:55;11.90;;;2.80;;
77105;SDS011;66057;54.718;18.426;2023-01-31T11:58:32;5.78;;;2.72;;
77105;SDS011;66057;54.718;18.426;2023-01-31T12:01:06;7.82;;;2.80;;
77105;SDS011;66057;54.718;18.426;2023-01-31T12:03:38;10.32;;;2.35;;
77105;SDS011;66057;54.718;18.426;2023-01-31T12:06:09;5.18;;;1.63;;
77105;SDS011;66057;54.718;18.426;2023-01-31T12:09:00;8.38;;;2.58;;
77105;SDS011;66057;54.718;18.426;2023-01-31T12:11:30;9.18;;;3.17;;
77105;SDS011;66057;54.718;18.426;2023-01-31T12:16:26;3.33;;;1.45;;
77105;SDS011;66057;54.718;18.426;2023-01-31T12:21:43;6.60;;;2.30;;
77105;SDS011;66057;54.718;18.426;2023-01-31T12:30:24;11.88;;;2.00;;
77105;SDS011;66057;54.718;18.426;2023-01-31T12:33:07;5.03;;;1.52;;
77105;SDS011;66057;54.718;18.426;2023-01-31T12:35:48;9.07;;;2.40;;
77105;SDS011;66057;54.718;18.426;2023-01-31T12:38:21;8.38;;;2.15;;
77105;SDS011;66057;54.718;18.426;2023-01-31T12:51:45;6.50;;;1.05;;
77105;SDS011;66057;54.718;18.426;2023-01-31T12:54:37;5.18;;;1.65;;
77105;SDS011;66057;54.718;18.426;2023-01-31T12:57:31;8.70;;;2.75;;
77105;SDS011;66057;54.718;18.426;2023-01-31T13:05:48;20.58;;;4.75;;
77105;SDS011;66057;54.718;18.426;2023-01-31T13:08:16;16.90;;;5.47;;
77105;SDS011;66057;54.718;18.426;2023-01-31T13:13:49;25.17;;;10.27;;
77105;SDS011;66057;54.718;18.426;2023-01-31T13:16:21;25.88;;;10.40;;
77105;SDS011;66057;54.718;18.426;2023-01-31T13:18:54;17.48;;;5.57;;
77105;SDS011;66057;54.718;18.426;2023-01-31T13:21:25;16.15;;;4.43;;
77105;SDS011;66057;54.718;18.426;2023-01-31T13:23:58;12.05;;;4.93;;
77105;SDS011;66057;54.718;18.426;2023-01-31T13:26:34;7.32;;;3.35;;
77105;SDS011;66057;54.718;18.426;2023-01-31T13:29:23;9.65;;;3.15;;
77105;SDS011;66057;54.718;18.426;2023-01-31T13:31:56;10.95;;;3.20;;
77105;SDS011;66057;54.718;18.426;2023-01-31T13:37:14;10.43;;;4.45;;
77105;SDS011;66057;54.718;18.426;2023-01-31T13:42:45;6.45;;;3.17;;
77105;SDS011;66057;54.718;18.426;2023-01-31T13:45:19;10.30;;;2.13;;
77105;SDS011;66057;54.718;18.426;2023-01-31T13:47:57;11.07;;;2.85;;
77105;SDS011;66057;54.718;18.426;2023-01-31T13:50:41;8.60;;;2.17;;
77105;SDS011;66057;54.718;18.426;2023-01-31T13:53:17;6.53;;;2.42;;
77105;SDS011;66057;54.718;18.426;2023-01-31T13:55:47;6.55;;;2.83;;
77105;SDS011;66057;54.718;18.426;2023-01-31T13:58:23;12.13;;;3.58;;
77105;SDS011;66057;54.718;18.426;2023-01-31T14:09:31;8.73;;;2.35;;
77105;SDS011;66057;54.718;18.426;2023-01-31T14:12:25;14.02;;;6.20;;
77105;SDS011;66057;54.718;18.426;2023-01-31T14:14:48;4.63;;;1.50;;
77105;SDS011;66057;54.718;18.426;2023-01-31T14:22:43;7.47;;;1.98;;
77105;SDS011;66057;54.718;18.426;2023-01-31T14:25:40;9.07;;;3.72;;
77105;SDS011;66057;54.718;18.426;2023-01-31T14:28:08;9.40;;;3.45;;
77105;SDS011;66057;54.718;18.426;2023-01-31T14:30:38;9.30;;;3.67;;
77105;SDS011;66057;54.718;18.426;2023-01-31T14:35:59;10.43;;;4.25;;
77105;SDS011;66057;54.718;18.426;2023-01-31T14:41:35;17.52;;;6.13;;
77105;SDS011;66057;54.718;18.426;2023-01-31T14:49:29;16.83;;;7.30;;
77105;SDS011;66057;54.718;18.426;2023-01-31T14:52:10;7.18;;;2.08;;
77105;SDS011;66057;54.718;18.426;2023-01-31T14:57:13;12.80;;;4.88;;
77105;SDS011;66057;54.718;18.426;2023-01-31T15:02:34;17.83;;;7.07;;
77105;SDS011;66057;54.718;18.426;2023-01-31T15:05:03;23.45;;;8.38;;
77105;SDS011;66057;54.718;18.426;2023-01-31T15:07:30;14.70;;;5.70;;
77105;SDS011;66057;54.718;18.426;2023-01-31T15:09:57;21.30;;;6.72;;
77105;SDS011;66057;54.718;18.426;2023-01-31T15:15:40;17.67;;;7.57;;
77105;SDS011;66057;54.718;18.426;2023-01-31T15:18:38;15.15;;;5.80;;
77105;SDS011;66057;54.718;18.426;2023-01-31T15:20:58;20.23;;;6.65;;
77105;SDS011;66057;54.718;18.426;2023-01-31T15:23:27;16.25;;;5.78;;
77105;SDS011;66057;54.718;18.426;2023-01-31T15:25:56;12.77;;;4.43;;
77105;SDS011;66057;54.718;18.426;2023-01-31T15:28:25;18.60;;;7.70;;
77105;SDS011;66057;54.718;18.426;2023-01-31T15:30:53;12.93;;;6.18;;
77105;SDS011;66057;54.718;18.426;2023-01-31T15:33:25;11.50;;;4.93;;
77105;SDS011;66057;54.718;18.426;2023-01-31T15:36:14;12.60;;;5.50;;
77105;SDS011;66057;54.718;18.426;2023-01-31T15:38:50;11.27;;;4.82;;
77105;SDS011;66057;54.718;18.426;2023-01-31T15:43:43;16.02;;;7.72;;
77105;SDS011;66057;54.718;18.426;2023-01-31T15:48:42;15.68;;;5.53;;
77105;SDS011;66057;54.718;18.426;2023-01-31T15:51:08;22.30;;;5.57;;
77105;SDS011;66057;54.718;18.426;2023-01-31T15:53:41;12.68;;;2.97;;
77105;SDS011;66057;54.718;18.426;2023-01-31T15:56:12;13.13;;;4.95;;
77105;SDS011;66057;54.718;18.426;2023-01-31T15:58:45;10.88;;;4.50;;
77105;SDS011;66057;54.718;18.426;2023-01-31T16:01:14;15.05;;;5.20;;
77105;SDS011;66057;54.718;18.426;2023-01-31T16:03:48;14.65;;;5.70;;
77105;SDS011;66057;54.718;18.426;2023-01-31T16:06:26;16.55;;;5.90;;
77105;SDS011;66057;54.718;18.426;2023-01-31T16:08:57;5.53;;;2.42;;
77105;SDS011;66057;54.718;18.426;2023-01-31T16:11:24;5.75;;;3.15;;
77105;SDS011;66057;54.718;18.426;2023-01-31T16:13:53;12.27;;;4.18;;
77105;SDS011;66057;54.718;18.426;2023-01-31T16:16:21;12.70;;;3.10;;
77105;SDS011;66057;54.718;18.426;2023-01-31T16:18:53;9.48;;;3.65;;
77105;SDS011;66057;54.718;18.426;2023-01-31T16:24:15;6.65;;;2.58;;
77105;SDS011;66057;54.718;18.426;2023-01-31T16:29:20;9.80;;;3.92;;
77105;SDS011;66057;54.718;18.426;2023-01-31T16:31:53;8.43;;;3.40;;
77105;SDS011;66057;54.718;18.426;2023-01-31T16:36:57;9.27;;;3.20;;
77105;SDS011;66057;54.718;18.426;2023-01-31T16:39:33;13.07;;;4.32;;
77105;SDS011;66057;54.718;18.426;2023-01-31T16:42:01;10.80;;;5.55;;
77105;SDS011;66057;54.718;18.426;2023-01-31T16:44:35;16.50;;;4.88;;
77105;SDS011;66057;54.718;18.426;2023-01-31T16:47:13;10.52;;;3.70;;
77105;SDS011;66057;54.718;18.426;2023-01-31T16:52:45;9.02;;;4.55;;
77105;SDS011;66057;54.718;18.426;2023-01-31T16:55:21;7.35;;;4.00;;
77105;SDS011;66057;54.718;18.426;2023-01-31T16:57:50;8.65;;;3.17;;
77105;SDS011;66057;54.718;18.426;2023-01-31T17:02:48;7.38;;;3.90;;
77105;SDS011;66057;54.718;18.426;2023-01-31T17:07:44;11.13;;;5.07;;
77105;SDS011;66057;54.718;18.426;2023-01-31T17:10:20;13.27;;;6.15;;
77105;SDS011;66057;54.718;18.426;2023-01-31T17:12:50;8.52;;;5.22;;
77105;SDS011;66057;54.718;18.426;2023-01-31T17:15:23;8.82;;;3.78;;
77105;SDS011;66057;54.718;18.426;2023-01-31T17:17:49;13.25;;;5.93;;
77105;SDS011;66057;54.718;18.426;2023-01-31T17:20:16;7.18;;;4.43;;
77105;SDS011;66057;54.718;18.426;2023-01-31T17:22:43;14.95;;;6.63;;
77105;SDS011;66057;54.718;18.426;2023-01-31T17:25:20;10.75;;;5.25;;